sensor_id;sensor_type;location;lat;lon;timestamp;temperature;humidity
9919;DHT22;4998;51.024;13.828;2022-07-23T00:01:12;25.50;53.50
9919;DHT22;4998;51.024;13.828;2022-07-23T00:03:39;25.40;53.60
9919;DHT22;4998;51.024;13.828;2022-07-23T00:06:06;25.40;53.60
9919;DHT22;4998;51.024;13.828;2022-07-23T00:08:33;25.40;53.70
9919;DHT22;4998;51.024;13.828;2022-07-23T00:11:00;25.40;53.80
9919;DHT22;4998;51.024;13.828;2022-07-23T00:13:27;25.40;53.80
9919;DHT22;4998;51.024;13.828;2022-07-23T00:15:54;25.30;53.90
9919;DHT22;4998;51.024;13.828;2022-07-23T00:18:23;25.30;53.90
9919;DHT22;4998;51.024;13.828;2022-07-23T00:20:50;25.30;54.00
9919;DHT22;4998;51.024;13.828;2022-07-23T00:23:17;25.20;54.00
9919;DHT22;4998;51.024;13.828;2022-07-23T00:25:45;25.20;54.00
9919;DHT22;4998;51.024;13.828;2022-07-23T00:28:12;25.10;54.00
9919;DHT22;4998;51.024;13.828;2022-07-23T00:30:39;25.10;54.10
9919;DHT22;4998;51.024;13.828;2022-07-23T00:33:07;25.00;54.30
9919;DHT22;4998;51.024;13.828;2022-07-23T00:35:37;25.00;54.50
9919;DHT22;4998;51.024;13.828;2022-07-23T00:38:07;24.90;54.70
9919;DHT22;4998;51.024;13.828;2022-07-23T00:40:35;24.90;54.90
9919;DHT22;4998;51.024;13.828;2022-07-23T00:43:02;24.80;54.90
9919;DHT22;4998;51.024;13.828;2022-07-23T00:45:30;24.80;55.00
9919;DHT22;4998;51.024;13.828;2022-07-23T00:47:57;24.80;55.00
9919;DHT22;4998;51.024;13.828;2022-07-23T00:50:24;24.70;55.10
9919;DHT22;4998;51.024;13.828;2022-07-23T00:52:53;24.70;55.20
9919;DHT22;4998;51.024;13.828;2022-07-23T00:55:21;24.70;55.50
9919;DHT22;4998;51.024;13.828;2022-07-23T00:57:47;24.60;55.30
9919;DHT22;4998;51.024;13.828;2022-07-23T01:00:15;24.60;55.40
9919;DHT22;4998;51.024;13.828;2022-07-23T01:02:42;24.60;55.40
9919;DHT22;4998;51.024;13.828;2022-07-23T01:05:09;24.60;55.50
9919;DHT22;4998;51.024;13.828;2022-07-23T01:07:37;24.50;55.50
9919;DHT22;4998;51.024;13.828;2022-07-23T01:10:07;24.50;55.60
9919;DHT22;4998;51.024;13.828;2022-07-23T01:12:54;24.50;55.90
9919;DHT22;4998;51.024;13.828;2022-07-23T01:15:22;24.40;55.70
9919;DHT22;4998;51.024;13.828;2022-07-23T01:17:49;24.30;55.90
9919;DHT22;4998;51.024;13.828;2022-07-23T01:20:16;24.30;56.00
9919;DHT22;4998;51.024;13.828;2022-07-23T01:22:45;24.30;56.30
9919;DHT22;4998;51.024;13.828;2022-07-23T01:25:12;24.30;56.60
9919;DHT22;4998;51.024;13.828;2022-07-23T01:27:39;24.30;56.70
9919;DHT22;4998;51.024;13.828;2022-07-23T01:30:08;24.30;56.80
9919;DHT22;4998;51.024;13.828;2022-07-23T01:32:35;24.30;56.90
9919;DHT22;4998;51.024;13.828;2022-07-23T01:35:03;24.30;57.00
9919;DHT22;4998;51.024;13.828;2022-07-23T01:37:30;24.20;57.00
9919;DHT22;4998;51.024;13.828;2022-07-23T01:39:58;24.30;57.10
9919;DHT22;4998;51.024;13.828;2022-07-23T01:42:26;24.30;57.30
9919;DHT22;4998;51.024;13.828;2022-07-23T01:44:53;24.30;57.20
9919;DHT22;4998;51.024;13.828;2022-07-23T01:47:20;24.30;57.20
9919;DHT22;4998;51.024;13.828;2022-07-23T01:49:47;24.30;57.20
9919;DHT22;4998;51.024;13.828;2022-07-23T01:52:14;24.20;57.10
9919;DHT22;4998;51.024;13.828;2022-07-23T01:54:42;24.20;57.20
9919;DHT22;4998;51.024;13.828;2022-07-23T01:57:10;24.20;57.40
9919;DHT22;4998;51.024;13.828;2022-07-23T01:59:37;24.10;58.30
9919;DHT22;4998;51.024;13.828;2022-07-23T02:02:05;24.10;57.70
9919;DHT22;4998;51.024;13.828;2022-07-23T02:04:32;24.10;57.90
9919;DHT22;4998;51.024;13.828;2022-07-23T02:07:02;24.10;58.00
9919;DHT22;4998;51.024;13.828;2022-07-23T02:09:30;24.10;58.30
9919;DHT22;4998;51.024;13.828;2022-07-23T02:11:57;24.10;58.40
9919;DHT22;4998;51.024;13.828;2022-07-23T02:14:26;24.10;58.60
9919;DHT22;4998;51.024;13.828;2022-07-23T02:16:53;24.10;58.80
9919;DHT22;4998;51.024;13.828;2022-07-23T02:19:21;24.10;58.70
9919;DHT22;4998;51.024;13.828;2022-07-23T02:21:48;24.00;58.70
9919;DHT22;4998;51.024;13.828;2022-07-23T02:24:15;24.00;58.90
9919;DHT22;4998;51.024;13.828;2022-07-23T02:26:42;24.00;59.00
9919;DHT22;4998;51.024;13.828;2022-07-23T02:29:09;24.00;59.10
9919;DHT22;4998;51.024;13.828;2022-07-23T02:31:38;24.00;59.10
9919;DHT22;4998;51.024;13.828;2022-07-23T02:34:05;23.80;59.10
9919;DHT22;4998;51.024;13.828;2022-07-23T02:36:32;23.90;59.20
9919;DHT22;4998;51.024;13.828;2022-07-23T02:39:00;23.90;59.30
9919;DHT22;4998;51.024;13.828;2022-07-23T02:41:27;23.90;59.50
9919;DHT22;4998;51.024;13.828;2022-07-23T02:43:54;23.80;60.40
9919;DHT22;4998;51.024;13.828;2022-07-23T02:46:21;23.80;59.80
9919;DHT22;4998;51.024;13.828;2022-07-23T02:48:49;23.70;59.90
9919;DHT22;4998;51.024;13.828;2022-07-23T02:51:16;23.70;60.10
9919;DHT22;4998;51.024;13.828;2022-07-23T02:53:43;23.70;60.20
9919;DHT22;4998;51.024;13.828;2022-07-23T02:56:10;23.70;60.30
9919;DHT22;4998;51.024;13.828;2022-07-23T02:58:38;23.70;60.50
9919;DHT22;4998;51.024;13.828;2022-07-23T03:01:05;23.60;60.70
9919;DHT22;4998;51.024;13.828;2022-07-23T03:03:31;23.60;60.80
9919;DHT22;4998;51.024;13.828;2022-07-23T03:06:00;23.60;61.00
9919;DHT22;4998;51.024;13.828;2022-07-23T03:08:27;23.60;61.40
9919;DHT22;4998;51.024;13.828;2022-07-23T03:10:54;23.60;61.40
9919;DHT22;4998;51.024;13.828;2022-07-23T03:13:20;23.50;61.40
9919;DHT22;4998;51.024;13.828;2022-07-23T03:15:47;23.50;61.50
9919;DHT22;4998;51.024;13.828;2022-07-23T03:18:14;23.50;61.70
9919;DHT22;4998;51.024;13.828;2022-07-23T03:20:47;23.50;61.80
9919;DHT22;4998;51.024;13.828;2022-07-23T03:23:27;23.50;62.30
9919;DHT22;4998;51.024;13.828;2022-07-23T03:25:55;23.50;62.30
9919;DHT22;4998;51.024;13.828;2022-07-23T03:28:22;23.50;62.20
9919;DHT22;4998;51.024;13.828;2022-07-23T03:30:49;23.50;62.50
9919;DHT22;4998;51.024;13.828;2022-07-23T03:33:16;23.50;62.60
9919;DHT22;4998;51.024;13.828;2022-07-23T03:35:44;23.50;62.80
9919;DHT22;4998;51.024;13.828;2022-07-23T03:38:11;23.40;63.80
9919;DHT22;4998;51.024;13.828;2022-07-23T03:40:40;23.50;63.50
9919;DHT22;4998;51.024;13.828;2022-07-23T03:43:07;23.40;63.50
9919;DHT22;4998;51.024;13.828;2022-07-23T03:45:34;23.50;63.50
9919;DHT22;4998;51.024;13.828;2022-07-23T03:48:01;23.50;63.50
9919;DHT22;4998;51.024;13.828;2022-07-23T03:50:28;23.50;63.50
9919;DHT22;4998;51.024;13.828;2022-07-23T03:52:55;23.50;63.50
9919;DHT22;4998;51.024;13.828;2022-07-23T03:55:22;23.50;63.50
9919;DHT22;4998;51.024;13.828;2022-07-23T03:57:50;23.50;63.60
9919;DHT22;4998;51.024;13.828;2022-07-23T04:00:17;23.50;63.80
9919;DHT22;4998;51.024;13.828;2022-07-23T04:02:44;23.50;63.90
9919;DHT22;4998;51.024;13.828;2022-07-23T04:05:11;23.50;63.90
9919;DHT22;4998;51.024;13.828;2022-07-23T04:07:38;23.50;63.90
9919;DHT22;4998;51.024;13.828;2022-07-23T04:10:06;23.50;63.90
9919;DHT22;4998;51.024;13.828;2022-07-23T04:12:33;23.50;63.90
9919;DHT22;4998;51.024;13.828;2022-07-23T04:15:03;23.50;63.90
9919;DHT22;4998;51.024;13.828;2022-07-23T04:17:30;23.40;64.20
9919;DHT22;4998;51.024;13.828;2022-07-23T04:19:57;23.40;64.30
9919;DHT22;4998;51.024;13.828;2022-07-23T04:22:24;23.40;64.50
9919;DHT22;4998;51.024;13.828;2022-07-23T04:24:51;23.40;64.60
9919;DHT22;4998;51.024;13.828;2022-07-23T04:27:18;23.40;64.80
9919;DHT22;4998;51.024;13.828;2022-07-23T04:29:45;23.40;65.20
9919;DHT22;4998;51.024;13.828;2022-07-23T04:32:14;23.40;65.20
9919;DHT22;4998;51.024;13.828;2022-07-23T04:34:41;23.30;65.40
9919;DHT22;4998;51.024;13.828;2022-07-23T04:37:08;23.30;65.50
9919;DHT22;4998;51.024;13.828;2022-07-23T04:39:34;23.30;65.60
9919;DHT22;4998;51.024;13.828;2022-07-23T04:42:02;23.30;65.80
9919;DHT22;4998;51.024;13.828;2022-07-23T04:44:29;23.40;66.20
9919;DHT22;4998;51.024;13.828;2022-07-23T04:46:56;23.40;66.70
9919;DHT22;4998;51.024;13.828;2022-07-23T04:49:25;23.40;66.80
9919;DHT22;4998;51.024;13.828;2022-07-23T04:51:52;23.40;67.10
9919;DHT22;4998;51.024;13.828;2022-07-23T04:54:19;23.40;67.10
9919;DHT22;4998;51.024;13.828;2022-07-23T04:56:45;23.40;67.40
9919;DHT22;4998;51.024;13.828;2022-07-23T04:59:12;23.40;67.50
9919;DHT22;4998;51.024;13.828;2022-07-23T05:01:39;23.40;67.80
9919;DHT22;4998;51.024;13.828;2022-07-23T05:04:07;23.50;68.10
9919;DHT22;4998;51.024;13.828;2022-07-23T05:06:35;23.50;68.20
9919;DHT22;4998;51.024;13.828;2022-07-23T05:09:02;23.50;68.40
9919;DHT22;4998;51.024;13.828;2022-07-23T05:11:29;23.50;68.40
9919;DHT22;4998;51.024;13.828;2022-07-23T05:13:56;23.50;68.60
9919;DHT22;4998;51.024;13.828;2022-07-23T05:16:23;23.60;68.80
9919;DHT22;4998;51.024;13.828;2022-07-23T05:18:50;23.60;68.90
9919;DHT22;4998;51.024;13.828;2022-07-23T05:21:17;23.60;69.00
9919;DHT22;4998;51.024;13.828;2022-07-23T05:23:45;23.60;69.00
9919;DHT22;4998;51.024;13.828;2022-07-23T05:26:12;23.70;69.10
9919;DHT22;4998;51.024;13.828;2022-07-23T05:28:39;23.70;69.00
9919;DHT22;4998;51.024;13.828;2022-07-23T05:31:06;23.70;69.10
9919;DHT22;4998;51.024;13.828;2022-07-23T05:33:33;23.70;69.30
9919;DHT22;4998;51.024;13.828;2022-07-23T05:36:01;23.70;69.50
9919;DHT22;4998;51.024;13.828;2022-07-23T05:38:28;23.60;69.50
9919;DHT22;4998;51.024;13.828;2022-07-23T05:40:57;23.70;69.70
9919;DHT22;4998;51.024;13.828;2022-07-23T05:43:24;23.70;69.80
9919;DHT22;4998;51.024;13.828;2022-07-23T05:45:51;23.70;69.80
9919;DHT22;4998;51.024;13.828;2022-07-23T05:48:19;23.70;70.00
9919;DHT22;4998;51.024;13.828;2022-07-23T05:50:47;23.70;70.00
9919;DHT22;4998;51.024;13.828;2022-07-23T05:53:14;23.80;70.10
9919;DHT22;4998;51.024;13.828;2022-07-23T05:55:41;23.80;70.00
9919;DHT22;4998;51.024;13.828;2022-07-23T05:58:09;23.80;70.20
9919;DHT22;4998;51.024;13.828;2022-07-23T06:00:36;23.80;70.50
9919;DHT22;4998;51.024;13.828;2022-07-23T06:03:03;23.80;70.60
9919;DHT22;4998;51.024;13.828;2022-07-23T06:05:30;23.90;69.90
9919;DHT22;4998;51.024;13.828;2022-07-23T06:07:57;23.90;70.50
9919;DHT22;4998;51.024;13.828;2022-07-23T06:10:24;23.90;70.50
9919;DHT22;4998;51.024;13.828;2022-07-23T06:12:51;23.90;70.40
9919;DHT22;4998;51.024;13.828;2022-07-23T06:15:20;23.90;70.50
9919;DHT22;4998;51.024;13.828;2022-07-23T06:17:47;23.90;70.60
9919;DHT22;4998;51.024;13.828;2022-07-23T06:20:13;23.90;70.40
9919;DHT22;4998;51.024;13.828;2022-07-23T06:22:40;23.90;70.30
9919;DHT22;4998;51.024;13.828;2022-07-23T06:25:08;23.90;70.30
9919;DHT22;4998;51.024;13.828;2022-07-23T06:27:35;23.80;70.40
9919;DHT22;4998;51.024;13.828;2022-07-23T06:30:02;23.80;70.50
9919;DHT22;4998;51.024;13.828;2022-07-23T06:32:31;23.80;70.70
9919;DHT22;4998;51.024;13.828;2022-07-23T06:34:58;23.80;70.80
9919;DHT22;4998;51.024;13.828;2022-07-23T06:37:25;23.70;70.60
9919;DHT22;4998;51.024;13.828;2022-07-23T06:39:51;23.70;70.60
9919;DHT22;4998;51.024;13.828;2022-07-23T06:42:18;23.70;70.60
9919;DHT22;4998;51.024;13.828;2022-07-23T06:44:45;23.70;70.80
9919;DHT22;4998;51.024;13.828;2022-07-23T06:47:12;23.70;71.50
9919;DHT22;4998;51.024;13.828;2022-07-23T06:49:41;23.70;70.70
9919;DHT22;4998;51.024;13.828;2022-07-23T06:52:08;23.70;70.90
9919;DHT22;4998;51.024;13.828;2022-07-23T06:54:35;23.70;70.70
9919;DHT22;4998;51.024;13.828;2022-07-23T06:57:02;23.70;70.80
9919;DHT22;4998;51.024;13.828;2022-07-23T06:59:29;23.60;71.00
9919;DHT22;4998;51.024;13.828;2022-07-23T07:01:56;23.60;71.30
9919;DHT22;4998;51.024;13.828;2022-07-23T07:04:23;23.60;71.60
9919;DHT22;4998;51.024;13.828;2022-07-23T07:06:52;23.60;71.80
9919;DHT22;4998;51.024;13.828;2022-07-23T07:09:19;23.60;71.90
9919;DHT22;4998;51.024;13.828;2022-07-23T07:11:46;23.60;71.80
9919;DHT22;4998;51.024;13.828;2022-07-23T07:14:13;23.60;72.60
9919;DHT22;4998;51.024;13.828;2022-07-23T07:16:40;23.60;72.00
9919;DHT22;4998;51.024;13.828;2022-07-23T07:19:07;23.60;72.20
9919;DHT22;4998;51.024;13.828;2022-07-23T07:21:34;23.60;72.40
9919;DHT22;4998;51.024;13.828;2022-07-23T07:24:02;23.60;72.70
9919;DHT22;4998;51.024;13.828;2022-07-23T07:26:30;23.60;72.90
9919;DHT22;4998;51.024;13.828;2022-07-23T07:28:57;23.70;73.00
9919;DHT22;4998;51.024;13.828;2022-07-23T07:31:24;23.80;73.00
9919;DHT22;4998;51.024;13.828;2022-07-23T07:33:51;23.90;73.10
9919;DHT22;4998;51.024;13.828;2022-07-23T07:36:18;23.90;72.90
9919;DHT22;4998;51.024;13.828;2022-07-23T07:38:45;24.00;72.80
9919;DHT22;4998;51.024;13.828;2022-07-23T07:41:13;24.10;72.60
9919;DHT22;4998;51.024;13.828;2022-07-23T07:43:41;24.10;72.30
9919;DHT22;4998;51.024;13.828;2022-07-23T07:46:08;24.20;72.40
9919;DHT22;4998;51.024;13.828;2022-07-23T07:48:36;24.20;72.50
9919;DHT22;4998;51.024;13.828;2022-07-23T07:51:03;24.30;72.90
9919;DHT22;4998;51.024;13.828;2022-07-23T07:53:31;24.40;73.10
9919;DHT22;4998;51.024;13.828;2022-07-23T07:55:58;24.50;72.90
9919;DHT22;4998;51.024;13.828;2022-07-23T07:58:27;24.60;72.50
9919;DHT22;4998;51.024;13.828;2022-07-23T08:00:54;24.70;71.80
9919;DHT22;4998;51.024;13.828;2022-07-23T08:03:21;24.80;71.30
9919;DHT22;4998;51.024;13.828;2022-07-23T08:05:48;24.80;70.90
9919;DHT22;4998;51.024;13.828;2022-07-23T08:08:15;24.90;71.10
9919;DHT22;4998;51.024;13.828;2022-07-23T08:10:42;24.90;71.10
9919;DHT22;4998;51.024;13.828;2022-07-23T08:13:13;25.00;71.10
9919;DHT22;4998;51.024;13.828;2022-07-23T08:15:42;25.10;70.70
9919;DHT22;4998;51.024;13.828;2022-07-23T08:18:10;25.20;70.50
9919;DHT22;4998;51.024;13.828;2022-07-23T08:20:37;25.30;70.20
9919;DHT22;4998;51.024;13.828;2022-07-23T08:23:05;25.40;70.00
9919;DHT22;4998;51.024;13.828;2022-07-23T08:25:34;25.40;69.80
9919;DHT22;4998;51.024;13.828;2022-07-23T08:28:03;25.50;69.90
9919;DHT22;4998;51.024;13.828;2022-07-23T08:30:32;25.60;69.90
9919;DHT22;4998;51.024;13.828;2022-07-23T08:33:02;25.70;69.10
9919;DHT22;4998;51.024;13.828;2022-07-23T08:35:32;25.80;68.90
9919;DHT22;4998;51.024;13.828;2022-07-23T08:38:00;25.90;68.80
9919;DHT22;4998;51.024;13.828;2022-07-23T08:40:29;26.10;68.90
9919;DHT22;4998;51.024;13.828;2022-07-23T08:42:57;26.20;68.20
9919;DHT22;4998;51.024;13.828;2022-07-23T08:45:26;26.30;67.70
9919;DHT22;4998;51.024;13.828;2022-07-23T08:47:55;26.40;67.30
9919;DHT22;4998;51.024;13.828;2022-07-23T08:50:26;26.60;66.70
9919;DHT22;4998;51.024;13.828;2022-07-23T08:52:53;26.70;66.40
9919;DHT22;4998;51.024;13.828;2022-07-23T08:55:23;26.80;65.90
9919;DHT22;4998;51.024;13.828;2022-07-23T08:57:51;26.90;65.40
9919;DHT22;4998;51.024;13.828;2022-07-23T09:00:20;27.00;65.10
9919;DHT22;4998;51.024;13.828;2022-07-23T09:02:48;27.00;64.90
9919;DHT22;4998;51.024;13.828;2022-07-23T09:05:15;27.10;64.60
9919;DHT22;4998;51.024;13.828;2022-07-23T09:08:06;27.20;64.20
9919;DHT22;4998;51.024;13.828;2022-07-23T09:10:44;27.20;63.80
9919;DHT22;4998;51.024;13.828;2022-07-23T09:13:33;27.20;63.40
9919;DHT22;4998;51.024;13.828;2022-07-23T09:16:03;27.30;63.10
9919;DHT22;4998;51.024;13.828;2022-07-23T09:18:33;27.30;62.80
9919;DHT22;4998;51.024;13.828;2022-07-23T09:21:12;27.30;62.80
9919;DHT22;4998;51.024;13.828;2022-07-23T09:23:42;27.40;62.40
9919;DHT22;4998;51.024;13.828;2022-07-23T09:26:29;27.40;62.20
9919;DHT22;4998;51.024;13.828;2022-07-23T09:29:08;27.50;61.70
9919;DHT22;4998;51.024;13.828;2022-07-23T09:31:44;27.50;61.30
9919;DHT22;4998;51.024;13.828;2022-07-23T09:34:14;27.50;61.70
9919;DHT22;4998;51.024;13.828;2022-07-23T09:36:42;27.50;61.80
9919;DHT22;4998;51.024;13.828;2022-07-23T09:39:11;27.60;61.80
9919;DHT22;4998;51.024;13.828;2022-07-23T09:41:41;27.60;61.40
9919;DHT22;4998;51.024;13.828;2022-07-23T09:44:13;27.70;61.40
9919;DHT22;4998;51.024;13.828;2022-07-23T09:46:42;27.80;60.70
9919;DHT22;4998;51.024;13.828;2022-07-23T09:49:14;27.90;60.90
9919;DHT22;4998;51.024;13.828;2022-07-23T09:51:51;27.90;59.80
9919;DHT22;4998;51.024;13.828;2022-07-23T09:54:28;28.00;59.40
9919;DHT22;4998;51.024;13.828;2022-07-23T09:56:57;27.90;59.00
9919;DHT22;4998;51.024;13.828;2022-07-23T09:59:26;27.90;59.20
9919;DHT22;4998;51.024;13.828;2022-07-23T10:01:54;27.90;59.20
9919;DHT22;4998;51.024;13.828;2022-07-23T10:04:23;27.90;59.20
9919;DHT22;4998;51.024;13.828;2022-07-23T10:06:53;27.90;59.50
9919;DHT22;4998;51.024;13.828;2022-07-23T10:09:24;28.00;59.30
9919;DHT22;4998;51.024;13.828;2022-07-23T10:11:55;28.00;59.30
9919;DHT22;4998;51.024;13.828;2022-07-23T10:14:25;28.10;59.20
9919;DHT22;4998;51.024;13.828;2022-07-23T10:16:55;28.20;59.20
9919;DHT22;4998;51.024;13.828;2022-07-23T10:19:23;28.30;59.10
9919;DHT22;4998;51.024;13.828;2022-07-23T10:21:53;28.30;58.60
9919;DHT22;4998;51.024;13.828;2022-07-23T10:24:34;28.40;58.40
9919;DHT22;4998;51.024;13.828;2022-07-23T10:27:17;28.50;57.90
9919;DHT22;4998;51.024;13.828;2022-07-23T10:29:50;28.50;57.90
9919;DHT22;4998;51.024;13.828;2022-07-23T10:32:25;28.50;57.80
9919;DHT22;4998;51.024;13.828;2022-07-23T10:34:58;28.50;57.30
9919;DHT22;4998;51.024;13.828;2022-07-23T10:37:35;28.60;57.20
9919;DHT22;4998;51.024;13.828;2022-07-23T10:40:12;28.60;57.10
9919;DHT22;4998;51.024;13.828;2022-07-23T10:42:40;28.60;57.30
9919;DHT22;4998;51.024;13.828;2022-07-23T10:45:24;28.70;57.10
9919;DHT22;4998;51.024;13.828;2022-07-23T10:47:52;28.70;56.90
9919;DHT22;4998;51.024;13.828;2022-07-23T10:50:23;28.70;56.50
9919;DHT22;4998;51.024;13.828;2022-07-23T10:53:11;28.70;56.00
9919;DHT22;4998;51.024;13.828;2022-07-23T10:55:43;28.70;56.20
9919;DHT22;4998;51.024;13.828;2022-07-23T10:58:10;28.70;55.80
9919;DHT22;4998;51.024;13.828;2022-07-23T11:00:37;28.70;55.90
9919;DHT22;4998;51.024;13.828;2022-07-23T11:03:05;28.70;55.60
9919;DHT22;4998;51.024;13.828;2022-07-23T11:05:52;28.60;55.30
9919;DHT22;4998;51.024;13.828;2022-07-23T11:08:20;28.60;56.30
9919;DHT22;4998;51.024;13.828;2022-07-23T11:10:51;28.60;55.60
9919;DHT22;4998;51.024;13.828;2022-07-23T11:13:39;28.60;55.70
9919;DHT22;4998;51.024;13.828;2022-07-23T11:16:11;28.60;55.60
9919;DHT22;4998;51.024;13.828;2022-07-23T11:19:06;28.70;55.60
9919;DHT22;4998;51.024;13.828;2022-07-23T11:21:45;28.80;55.80
9919;DHT22;4998;51.024;13.828;2022-07-23T11:24:14;28.80;55.40
9919;DHT22;4998;51.024;13.828;2022-07-23T11:26:55;28.90;55.40
9919;DHT22;4998;51.024;13.828;2022-07-23T11:29:41;28.90;55.00
9919;DHT22;4998;51.024;13.828;2022-07-23T11:32:37;28.90;54.90
9919;DHT22;4998;51.024;13.828;2022-07-23T11:35:22;29.00;54.90
9919;DHT22;4998;51.024;13.828;2022-07-23T11:37:52;29.00;55.10
9919;DHT22;4998;51.024;13.828;2022-07-23T11:40:27;29.10;54.90
9919;DHT22;4998;51.024;13.828;2022-07-23T11:42:57;29.30;54.70
9919;DHT22;4998;51.024;13.828;2022-07-23T11:45:29;29.10;54.40
9919;DHT22;4998;51.024;13.828;2022-07-23T11:47:57;29.20;54.00
9919;DHT22;4998;51.024;13.828;2022-07-23T11:50:25;29.20;53.60
9919;DHT22;4998;51.024;13.828;2022-07-23T11:52:52;29.10;53.60
9919;DHT22;4998;51.024;13.828;2022-07-23T11:55:19;29.10;53.90
9919;DHT22;4998;51.024;13.828;2022-07-23T11:57:47;29.10;54.30
9919;DHT22;4998;51.024;13.828;2022-07-23T12:00:17;29.10;54.30
9919;DHT22;4998;51.024;13.828;2022-07-23T12:02:48;29.00;54.20
9919;DHT22;4998;51.024;13.828;2022-07-23T12:05:17;29.00;54.30
9919;DHT22;4998;51.024;13.828;2022-07-23T12:07:45;29.00;54.30
9919;DHT22;4998;51.024;13.828;2022-07-23T12:10:17;28.90;54.10
9919;DHT22;4998;51.024;13.828;2022-07-23T12:12:46;28.90;53.80
9919;DHT22;4998;51.024;13.828;2022-07-23T12:15:20;28.80;54.00
9919;DHT22;4998;51.024;13.828;2022-07-23T12:17:49;28.60;54.10
9919;DHT22;4998;51.024;13.828;2022-07-23T12:20:17;28.50;54.30
9919;DHT22;4998;51.024;13.828;2022-07-23T12:22:46;28.50;54.50
9919;DHT22;4998;51.024;13.828;2022-07-23T12:25:15;28.40;54.50
9919;DHT22;4998;51.024;13.828;2022-07-23T12:27:43;28.40;54.50
9919;DHT22;4998;51.024;13.828;2022-07-23T12:30:20;28.20;54.50
9919;DHT22;4998;51.024;13.828;2022-07-23T12:32:49;28.10;54.60
9919;DHT22;4998;51.024;13.828;2022-07-23T12:35:17;28.10;54.80
9919;DHT22;4998;51.024;13.828;2022-07-23T12:37:46;27.90;55.00
9919;DHT22;4998;51.024;13.828;2022-07-23T12:40:21;27.80;55.20
9919;DHT22;4998;51.024;13.828;2022-07-23T12:42:53;27.60;55.60
9919;DHT22;4998;51.024;13.828;2022-07-23T12:45:22;27.60;55.90
9919;DHT22;4998;51.024;13.828;2022-07-23T12:47:58;27.50;56.10
9919;DHT22;4998;51.024;13.828;2022-07-23T12:50:37;27.40;56.20
9919;DHT22;4998;51.024;13.828;2022-07-23T12:53:06;27.40;56.40
9919;DHT22;4998;51.024;13.828;2022-07-23T12:55:34;27.30;56.60
9919;DHT22;4998;51.024;13.828;2022-07-23T12:58:06;27.30;56.70
9919;DHT22;4998;51.024;13.828;2022-07-23T13:03:29;27.20;56.90
9919;DHT22;4998;51.024;13.828;2022-07-23T13:05:57;27.20;57.00
9919;DHT22;4998;51.024;13.828;2022-07-23T13:08:26;27.20;57.40
9919;DHT22;4998;51.024;13.828;2022-07-23T13:10:53;27.20;57.60
9919;DHT22;4998;51.024;13.828;2022-07-23T13:13:22;27.30;57.60
9919;DHT22;4998;51.024;13.828;2022-07-23T13:15:50;27.30;57.70
9919;DHT22;4998;51.024;13.828;2022-07-23T13:18:17;27.40;57.70
9919;DHT22;4998;51.024;13.828;2022-07-23T13:20:46;27.40;57.70
9919;DHT22;4998;51.024;13.828;2022-07-23T13:23:14;27.40;57.60
9919;DHT22;4998;51.024;13.828;2022-07-23T13:25:42;27.50;58.20
9919;DHT22;4998;51.024;13.828;2022-07-23T13:28:09;27.60;57.60
9919;DHT22;4998;51.024;13.828;2022-07-23T13:30:36;27.60;57.40
9919;DHT22;4998;51.024;13.828;2022-07-23T13:33:03;27.60;57.20
9919;DHT22;4998;51.024;13.828;2022-07-23T13:35:31;27.60;57.20
9919;DHT22;4998;51.024;13.828;2022-07-23T13:37:59;27.70;57.20
9919;DHT22;4998;51.024;13.828;2022-07-23T13:40:26;27.70;57.20
9919;DHT22;4998;51.024;13.828;2022-07-23T13:42:53;27.70;57.20
9919;DHT22;4998;51.024;13.828;2022-07-23T13:45:20;27.70;57.00
9919;DHT22;4998;51.024;13.828;2022-07-23T13:47:47;27.50;57.00
9919;DHT22;4998;51.024;13.828;2022-07-23T13:50:14;27.70;57.10
9919;DHT22;4998;51.024;13.828;2022-07-23T13:52:43;27.70;57.10
9919;DHT22;4998;51.024;13.828;2022-07-23T13:55:11;27.70;57.30
9919;DHT22;4998;51.024;13.828;2022-07-23T13:57:38;27.70;57.40
9919;DHT22;4998;51.024;13.828;2022-07-23T14:00:07;27.80;57.40
9919;DHT22;4998;51.024;13.828;2022-07-23T14:02:36;27.90;57.70
9919;DHT22;4998;51.024;13.828;2022-07-23T14:05:04;27.90;57.80
9919;DHT22;4998;51.024;13.828;2022-07-23T14:07:31;28.00;57.50
9919;DHT22;4998;51.024;13.828;2022-07-23T14:09:58;28.10;57.50
9919;DHT22;4998;51.024;13.828;2022-07-23T14:12:26;28.20;57.40
9919;DHT22;4998;51.024;13.828;2022-07-23T14:14:53;28.30;57.30
9919;DHT22;4998;51.024;13.828;2022-07-23T14:17:20;28.30;57.10
9919;DHT22;4998;51.024;13.828;2022-07-23T14:19:48;28.40;57.00
9919;DHT22;4998;51.024;13.828;2022-07-23T14:22:15;28.40;56.90
9919;DHT22;4998;51.024;13.828;2022-07-23T14:24:42;28.40;56.80
9919;DHT22;4998;51.024;13.828;2022-07-23T14:27:09;28.40;56.70
9919;DHT22;4998;51.024;13.828;2022-07-23T14:29:37;28.50;56.60
9919;DHT22;4998;51.024;13.828;2022-07-23T14:32:05;28.50;56.30
9919;DHT22;4998;51.024;13.828;2022-07-23T14:34:32;28.50;56.40
9919;DHT22;4998;51.024;13.828;2022-07-23T14:36:59;28.50;56.20
9919;DHT22;4998;51.024;13.828;2022-07-23T14:39:26;28.40;56.00
9919;DHT22;4998;51.024;13.828;2022-07-23T14:41:53;28.40;56.00
9919;DHT22;4998;51.024;13.828;2022-07-23T14:44:20;28.40;56.00
9919;DHT22;4998;51.024;13.828;2022-07-23T14:46:48;28.40;56.00
9919;DHT22;4998;51.024;13.828;2022-07-23T14:49:15;28.30;55.90
9919;DHT22;4998;51.024;13.828;2022-07-23T14:51:42;28.30;55.90
9919;DHT22;4998;51.024;13.828;2022-07-23T14:54:10;28.30;55.90
9919;DHT22;4998;51.024;13.828;2022-07-23T14:56:37;28.30;56.00
9919;DHT22;4998;51.024;13.828;2022-07-23T14:59:04;28.30;55.90
9919;DHT22;4998;51.024;13.828;2022-07-23T15:01:31;28.30;55.90
9919;DHT22;4998;51.024;13.828;2022-07-23T15:04:00;28.40;56.80
9919;DHT22;4998;51.024;13.828;2022-07-23T15:06:27;28.40;56.00
9919;DHT22;4998;51.024;13.828;2022-07-23T15:08:53;28.50;56.70
9919;DHT22;4998;51.024;13.828;2022-07-23T15:11:20;28.60;55.90
9919;DHT22;4998;51.024;13.828;2022-07-23T15:13:47;28.70;55.70
9919;DHT22;4998;51.024;13.828;2022-07-23T15:16:14;28.80;55.30
9919;DHT22;4998;51.024;13.828;2022-07-23T15:18:41;28.80;54.90
9919;DHT22;4998;51.024;13.828;2022-07-23T15:21:09;28.90;54.70
9919;DHT22;4998;51.024;13.828;2022-07-23T15:23:36;28.90;54.60
9919;DHT22;4998;51.024;13.828;2022-07-23T15:26:05;28.80;54.40
9919;DHT22;4998;51.024;13.828;2022-07-23T15:28:32;28.80;54.30
9919;DHT22;4998;51.024;13.828;2022-07-23T15:30:59;28.80;54.30
9919;DHT22;4998;51.024;13.828;2022-07-23T15:33:27;28.80;54.30
9919;DHT22;4998;51.024;13.828;2022-07-23T15:35:53;28.70;54.20
9919;DHT22;4998;51.024;13.828;2022-07-23T15:38:23;28.70;54.10
9919;DHT22;4998;51.024;13.828;2022-07-23T15:40:50;28.70;54.10
9919;DHT22;4998;51.024;13.828;2022-07-23T15:43:17;28.70;53.90
9919;DHT22;4998;51.024;13.828;2022-07-23T15:45:44;28.70;53.80
9919;DHT22;4998;51.024;13.828;2022-07-23T15:48:12;28.60;53.60
9919;DHT22;4998;51.024;13.828;2022-07-23T15:50:39;28.60;53.60
9919;DHT22;4998;51.024;13.828;2022-07-23T15:53:06;28.50;53.50
9919;DHT22;4998;51.024;13.828;2022-07-23T15:55:35;28.40;53.50
9919;DHT22;4998;51.024;13.828;2022-07-23T15:58:02;28.40;53.60